Terminal Aerodrome Forecast
Issued by NWS Charleston, WV

Current Version | Previous Version | Graphics & Text | Print | Product List | Glossary On
Versions: 1 2 3 4 5 6 7 8 9 10 11 12 13 14 15 16 17 18 19 20 21 22 23 24 25 26 27 28
000
FTUS41 KRLX 161127
TAFPKB
TAF
KPKB 161127Z 1612/1712 27009G17KT 6SM -SHRA OVC015
     FM161500 26010G18KT P6SM -SHRA OVC025
     FM162100 26010G19KT P6SM -SHRASN OVC025
     FM170400 25009G17KT P6SM OVC015=

USA.gov is the U.S. government's official web portal to all federal, state and local government web resources and services.